createdAt,value
2019-05-19T00:00:20.666Z,29.73
2019-05-19T00:02:52.409Z,27.47
2019-05-19T00:05:26.479Z,30.20
2019-05-19T00:07:59.119Z,30.53
2019-05-19T00:10:31.013Z,30.90
2019-05-19T00:13:02.880Z,34.77
2019-05-19T00:15:38.273Z,34.20
2019-05-19T00:18:10.050Z,34.37
2019-05-19T00:20:43.478Z,33.80
2019-05-19T00:23:15.798Z,35.33
2019-05-19T00:25:48.450Z,36.50
2019-05-19T00:28:21.275Z,41.10
2019-05-19T00:30:52.864Z,38.30
2019-05-19T00:33:25.665Z,38.20
2019-05-19T00:35:57.718Z,38.13
2019-05-19T00:38:29.271Z,36.23
2019-05-19T00:41:02.274Z,37.30
2019-05-19T00:43:35.164Z,41.67
2019-05-19T00:46:06.582Z,39.47
2019-05-19T00:48:38.009Z,39.80
2019-05-19T00:51:10.105Z,33.80
2019-05-19T00:53:42.468Z,41.27
2019-05-19T00:56:15.377Z,44.10
2019-05-19T00:58:47.638Z,35.27
2019-05-19T01:01:20.410Z,45.33
2019-05-19T01:03:55.084Z,47.87
2019-05-19T01:06:27.478Z,35.70
2019-05-19T01:09:01.954Z,42.87
2019-05-19T01:11:35.607Z,37.30
2019-05-19T01:14:08.304Z,42.47
2019-05-19T01:16:39.842Z,38.37
2019-05-19T01:19:14.025Z,40.57
2019-05-19T01:21:48.090Z,46.30
2019-05-19T01:24:19.516Z,43.57
2019-05-19T01:26:50.862Z,41.03
2019-05-19T01:29:22.631Z,43.37
2019-05-19T01:31:55.404Z,43.07
2019-05-19T01:34:26.997Z,41.47
2019-05-19T01:37:00.535Z,39.03
2019-05-19T01:39:32.497Z,40.37
2019-05-19T01:42:05.215Z,32.97
2019-05-19T01:44:37.916Z,42.70
2019-05-19T01:47:11.954Z,39.27
2019-05-19T01:49:43.535Z,45.90
2019-05-19T01:52:15.854Z,38.23
2019-05-19T01:54:48.487Z,39.00
2019-05-19T01:57:21.325Z,36.80
2019-05-19T01:59:54.143Z,44.47
2019-05-19T02:02:27.050Z,46.33
2019-05-19T02:04:59.516Z,45.30
2019-05-19T02:07:31.399Z,35.57
2019-05-19T02:10:02.986Z,44.07
2019-05-19T02:12:36.617Z,38.93
2019-05-19T02:15:10.306Z,41.57
2019-05-19T02:17:42.553Z,36.53
2019-05-19T02:20:14.964Z,39.17
2019-05-19T02:22:45.970Z,39.30
2019-05-19T02:25:20.179Z,43.80
2019-05-19T02:27:52.953Z,33.83
2019-05-19T02:30:28.526Z,46.87
2019-05-19T02:33:00.974Z,36.70
2019-05-19T02:35:32.703Z,53.10
2019-05-19T02:38:04.589Z,56.13
2019-05-19T02:40:37.716Z,50.20
2019-05-19T02:43:08.858Z,44.80
2019-05-19T02:45:40.814Z,59.93
2019-05-19T02:48:14.597Z,53.70
2019-05-19T02:50:52.785Z,55.87
2019-05-19T02:53:24.158Z,60.50
2019-05-19T02:55:58.754Z,60.30
2019-05-19T02:58:33.102Z,57.33
2019-05-19T03:01:05.916Z,56.73
2019-05-19T03:03:37.895Z,55.77
2019-05-19T03:06:12.395Z,47.63
2019-05-19T03:08:44.885Z,58.17
2019-05-19T03:11:17.832Z,56.80
2019-05-19T03:13:49.290Z,59.03
2019-05-19T03:16:22.783Z,58.87
2019-05-19T03:18:55.031Z,56.60
2019-05-19T03:21:27.655Z,58.93
2019-05-19T03:23:59.605Z,56.27
2019-05-19T03:26:34.123Z,57.10
2019-05-19T03:29:07.400Z,55.90
2019-05-19T03:31:43.096Z,49.87
2019-05-19T03:34:16.712Z,59.03
2019-05-19T03:36:49.479Z,64.17
2019-05-19T03:39:23.694Z,57.23
2019-05-19T03:41:58.158Z,49.23
2019-05-19T03:44:29.708Z,64.23
2019-05-19T03:47:02.295Z,61.47
2019-05-19T03:49:34.071Z,64.40
2019-05-19T03:52:06.776Z,53.63
2019-05-19T03:54:40.010Z,64.10
2019-05-19T03:57:12.725Z,62.30
2019-05-19T03:59:44.153Z,63.67
2019-05-19T04:02:16.756Z,56.20
2019-05-19T04:04:48.607Z,64.53
2019-05-19T04:07:21.549Z,60.60
2019-05-19T04:09:53.383Z,60.70
2019-05-19T04:12:26.178Z,51.63
2019-05-19T04:14:58.981Z,61.90
2019-05-19T04:17:31.721Z,61.90
2019-05-19T04:20:02.477Z,53.97
2019-05-19T04:22:35.126Z,67.57
2019-05-19T04:25:07.422Z,63.90
2019-05-19T04:27:39.915Z,65.50
2019-05-19T04:30:12.934Z,68.00
2019-05-19T04:32:44.814Z,62.37
2019-05-19T04:35:16.682Z,59.70
2019-05-19T04:37:49.156Z,60.97
2019-05-19T04:40:21.843Z,62.63
2019-05-19T04:42:54.692Z,53.40
2019-05-19T04:45:28.840Z,58.73
2019-05-19T04:48:03.040Z,59.13
2019-05-19T04:50:35.627Z,55.23
2019-05-19T04:53:07.169Z,55.97
2019-05-19T04:55:39.217Z,45.10
2019-05-19T04:58:11.967Z,55.60
2019-05-19T05:00:44.671Z,52.50
2019-05-19T05:03:16.386Z,53.97
2019-05-19T05:05:48.832Z,44.47
2019-05-19T05:08:29.511Z,52.47
2019-05-19T05:10:54.858Z,52.00
2019-05-19T05:13:27.556Z,53.83
2019-05-19T05:16:00.064Z,50.60
2019-05-19T05:18:33.873Z,51.57
2019-05-19T05:21:05.642Z,44.47
2019-05-19T05:23:38.367Z,47.50
2019-05-19T05:26:10.959Z,50.03
2019-05-19T05:28:43.157Z,51.30
2019-05-19T05:31:15.606Z,44.40
2019-05-19T05:33:47.696Z,55.50
2019-05-19T05:36:21.998Z,44.23
2019-05-19T05:38:53.755Z,54.33
2019-05-19T05:41:26.669Z,52.33
2019-05-19T05:43:58.437Z,42.63
2019-05-19T05:46:31.027Z,48.70
2019-05-19T05:49:04.261Z,52.30
2019-05-19T05:51:38.189Z,41.37
2019-05-19T05:54:10.268Z,48.73
2019-05-19T05:56:44.783Z,48.53
2019-05-19T05:59:16.731Z,48.77
2019-05-19T06:01:49.138Z,42.27
2019-05-19T06:04:20.566Z,46.60
2019-05-19T06:06:55.899Z,41.17
2019-05-19T06:09:28.662Z,48.50
2019-05-19T06:12:00.263Z,45.60
2019-05-19T06:14:33.701Z,44.70
2019-05-19T06:17:06.059Z,39.67
2019-05-19T06:19:37.825Z,50.40
2019-05-19T06:22:10.247Z,44.43
2019-05-19T06:24:42.944Z,46.03
2019-05-19T06:27:18.894Z,43.50
2019-05-19T06:29:50.614Z,44.53
2019-05-19T06:32:27.314Z,39.33
2019-05-19T06:35:00.034Z,44.07
2019-05-19T06:37:31.889Z,43.13
2019-05-19T06:40:04.467Z,42.93
2019-05-19T06:42:37.104Z,42.50
2019-05-19T06:45:11.281Z,42.07
2019-05-19T06:47:43.932Z,42.43
2019-05-19T06:50:17.470Z,36.30
2019-05-19T06:52:49.280Z,40.37
2019-05-19T06:55:20.722Z,38.93
2019-05-19T06:57:53.517Z,41.67
2019-05-19T07:00:25.469Z,38.27
2019-05-19T07:02:56.510Z,39.97
2019-05-19T07:05:29.438Z,34.97
2019-05-19T07:08:01.879Z,38.70
2019-05-19T07:10:34.234Z,35.87
2019-05-19T07:13:08.936Z,37.97
2019-05-19T07:15:40.451Z,36.07
2019-05-19T07:18:12.721Z,37.17
2019-05-19T07:20:45.409Z,32.13
2019-05-19T07:23:27.732Z,37.93
2019-05-19T07:25:52.108Z,35.30
2019-05-19T07:28:24.711Z,35.70
2019-05-19T07:30:57.226Z,36.97
2019-05-19T07:33:29.908Z,35.10
2019-05-19T07:36:04.492Z,35.20
2019-05-19T07:38:36.855Z,33.77
2019-05-19T07:41:08.351Z,34.50
2019-05-19T07:43:40.710Z,34.43
2019-05-19T07:46:14.835Z,37.03
2019-05-19T07:48:47.337Z,35.77
2019-05-19T07:51:21.450Z,33.50
2019-05-19T07:53:56.852Z,34.97
2019-05-19T07:56:29.668Z,31.63
2019-05-19T07:59:02.485Z,30.60
2019-05-19T08:01:36.642Z,30.07
2019-05-19T08:04:09.447Z,27.83
2019-05-19T08:06:43.018Z,28.23
2019-05-19T08:09:15.461Z,26.17
2019-05-19T08:11:47.224Z,26.90
2019-05-19T08:14:20.658Z,27.23
2019-05-19T08:16:54.054Z,27.87
2019-05-19T08:19:25.482Z,25.37
2019-05-19T08:21:57.876Z,26.07
2019-05-19T08:24:29.744Z,25.37
2019-05-19T08:27:01.495Z,24.57
2019-05-19T08:29:33.036Z,25.47
2019-05-19T08:32:05.745Z,22.27
2019-05-19T08:34:37.225Z,23.33
2019-05-19T08:37:08.547Z,21.03
2019-05-19T08:39:41.247Z,20.83
2019-05-19T08:42:13.716Z,20.20
2019-05-19T08:44:45.186Z,19.03
2019-05-19T08:47:18.102Z,17.80
2019-05-19T08:49:50.473Z,18.07
2019-05-19T08:52:22.127Z,20.37
2019-05-19T08:54:56.290Z,17.53
2019-05-19T08:57:28.822Z,15.87
2019-05-19T09:00:00.259Z,16.43
2019-05-19T09:02:31.986Z,15.10
2019-05-19T09:05:04.945Z,15.20
2019-05-19T09:07:37.459Z,16.17
2019-05-19T09:10:10.520Z,15.00
2019-05-19T09:12:43.071Z,13.57
2019-05-19T09:15:14.198Z,14.70
2019-05-19T09:17:48.879Z,14.10
2019-05-19T09:20:20.302Z,15.33
2019-05-19T09:22:52.083Z,13.30
2019-05-19T09:25:24.470Z,13.63
2019-05-19T09:27:57.054Z,14.93
2019-05-19T09:30:29.477Z,13.10
2019-05-19T09:33:03.159Z,12.93
2019-05-19T09:35:35.826Z,12.27
2019-05-19T09:38:07.484Z,12.17
2019-05-19T09:40:41.326Z,13.67
2019-05-19T09:43:15.437Z,12.30
2019-05-19T09:45:47.303Z,11.70
2019-05-19T09:48:20.116Z,12.53
2019-05-19T09:50:53.590Z,13.33
2019-05-19T09:53:25.463Z,11.47
2019-05-19T09:55:58.141Z,13.47
2019-05-19T09:58:30.842Z,11.07
2019-05-19T10:01:03.650Z,11.27
2019-05-19T10:03:35.278Z,11.83
2019-05-19T10:06:07.623Z,11.80
2019-05-19T10:08:40.444Z,12.07
2019-05-19T10:11:14.475Z,13.10
2019-05-19T10:13:49.988Z,11.57
2019-05-19T10:16:22.116Z,11.17
2019-05-19T10:18:54.481Z,12.23
2019-05-19T10:21:26.213Z,11.23
2019-05-19T10:23:57.370Z,10.70
2019-05-19T10:26:31.131Z,7.40
2019-05-19T10:29:03.606Z,7.10
2019-05-19T10:31:35.093Z,7.43
2019-05-19T10:34:06.414Z,6.70
2019-05-19T10:36:38.174Z,5.87
2019-05-19T10:39:09.737Z,6.10
2019-05-19T10:41:42.455Z,6.57
2019-05-19T10:44:17.783Z,8.03
2019-05-19T10:46:49.493Z,8.37
2019-05-19T10:49:21.950Z,8.63
2019-05-19T10:51:54.516Z,8.40
2019-05-19T10:54:26.307Z,6.23
2019-05-19T10:56:59.162Z,6.30
2019-05-19T10:59:31.846Z,6.43
2019-05-19T11:02:03.347Z,7.10
2019-05-19T11:04:36.761Z,7.00
2019-05-19T11:07:10.106Z,6.67
2019-05-19T11:09:42.627Z,6.50
2019-05-19T11:12:14.351Z,6.50
2019-05-19T11:14:47.175Z,6.77
2019-05-19T11:17:21.262Z,6.10
2019-05-19T11:19:53.927Z,6.77
2019-05-19T11:22:26.360Z,8.30
2019-05-19T11:24:58.079Z,6.50
2019-05-19T11:27:29.627Z,6.90
2019-05-19T11:30:03.715Z,6.67
2019-05-19T11:32:36.218Z,6.63
2019-05-19T11:35:10.591Z,7.67
2019-05-19T11:37:42.988Z,6.80
2019-05-19T11:40:15.742Z,6.20
2019-05-19T11:42:47.754Z,6.90
2019-05-19T11:45:20.198Z,6.77
2019-05-19T11:47:51.611Z,6.63
2019-05-19T11:50:25.620Z,6.33
2019-05-19T11:52:58.674Z,7.03
2019-05-19T11:55:31.150Z,8.67
2019-05-19T11:58:03.762Z,8.77
2019-05-19T12:00:36.186Z,7.27
2019-05-19T12:03:07.432Z,6.63
2019-05-19T12:05:39.298Z,6.87
2019-05-19T12:08:13.292Z,7.23
2019-05-19T12:10:46.026Z,7.13
2019-05-19T12:13:18.816Z,7.23
2019-05-19T12:15:52.067Z,6.53
2019-05-19T12:18:24.442Z,6.70
2019-05-19T12:20:56.193Z,6.40
2019-05-19T12:23:27.664Z,6.63
2019-05-19T12:25:59.540Z,8.03
2019-05-19T12:28:34.640Z,6.17
2019-05-19T12:31:07.343Z,6.13
2019-05-19T12:33:51.471Z,5.60
2019-05-19T12:36:16.327Z,5.07
2019-05-19T12:38:50.886Z,4.80
2019-05-19T12:41:22.838Z,5.33
2019-05-19T12:43:54.409Z,5.23
2019-05-19T12:46:27.086Z,5.87
2019-05-19T12:48:58.662Z,5.13
2019-05-19T12:51:30.419Z,5.53
2019-05-19T12:54:02.287Z,4.80
2019-05-19T12:56:39.459Z,6.60
2019-05-19T12:59:08.653Z,6.53
2019-05-19T13:01:41.482Z,5.13
2019-05-19T13:04:12.888Z,5.20
2019-05-19T13:06:47.491Z,5.50
2019-05-19T13:09:19.465Z,7.87
2019-05-19T13:11:53.075Z,6.00
2019-05-19T13:14:24.657Z,5.20
2019-05-19T13:16:58.419Z,5.27
2019-05-19T13:19:31.213Z,5.60
2019-05-19T13:22:05.910Z,5.07
2019-05-19T13:24:38.388Z,4.97
2019-05-19T13:27:10.971Z,5.77
2019-05-19T13:29:45.119Z,5.73
2019-05-19T13:32:17.838Z,4.47
2019-05-19T13:34:52.320Z,5.10
2019-05-19T13:37:24.193Z,5.33
2019-05-19T13:39:56.735Z,5.80
2019-05-19T13:42:30.588Z,5.00
2019-05-19T13:45:02.132Z,5.47
2019-05-19T13:47:34.613Z,8.73
2019-05-19T13:50:09.635Z,5.73
2019-05-19T13:52:41.596Z,4.70
2019-05-19T13:55:17.642Z,4.30
2019-05-19T13:57:49.445Z,5.47
2019-05-19T14:00:21.978Z,4.47
2019-05-19T14:02:54.710Z,4.73
2019-05-19T14:05:27.191Z,6.20
2019-05-19T14:07:59.902Z,4.97
2019-05-19T14:10:32.885Z,6.37
2019-05-19T14:13:07.088Z,5.27
2019-05-19T14:15:38.688Z,5.53
2019-05-19T14:18:10.434Z,5.00
2019-05-19T14:20:44.030Z,5.27
2019-05-19T14:23:14.773Z,6.07
2019-05-19T14:25:48.202Z,4.73
2019-05-19T14:28:20.606Z,4.87
2019-05-19T14:30:55.594Z,4.13
2019-05-19T14:33:28.399Z,5.23
2019-05-19T14:36:02.985Z,3.90
2019-05-19T14:38:34.941Z,4.60
2019-05-19T14:41:07.381Z,3.70
2019-05-19T14:43:39.727Z,5.73
2019-05-19T14:46:12.395Z,2.87
2019-05-19T14:48:44.262Z,2.80
2019-05-19T14:51:16.883Z,5.77
2019-05-19T14:53:48.311Z,2.90
2019-05-19T14:56:21.027Z,5.47
2019-05-19T14:58:52.926Z,3.57
2019-05-19T15:01:25.409Z,3.33
2019-05-19T15:03:59.156Z,3.93
2019-05-19T15:06:31.645Z,3.00
2019-05-19T15:09:05.721Z,2.80
2019-05-19T15:11:37.715Z,3.13
2019-05-19T15:14:10.102Z,2.47
2019-05-19T15:16:42.803Z,2.93
2019-05-19T15:19:15.411Z,2.70
2019-05-19T15:21:47.609Z,2.20
2019-05-19T15:24:19.552Z,2.30
2019-05-19T15:26:52.019Z,4.23
2019-05-19T15:29:24.742Z,2.23
2019-05-19T15:31:57.113Z,1.93
2019-05-19T15:34:29.890Z,2.27
2019-05-19T15:37:02.629Z,2.00
2019-05-19T15:39:34.594Z,2.20
2019-05-19T15:42:06.290Z,2.27
2019-05-19T15:44:38.647Z,2.47
2019-05-19T15:47:10.403Z,3.07
2019-05-19T15:49:42.284Z,2.30
2019-05-19T15:52:13.703Z,3.87
2019-05-19T15:54:45.322Z,2.80
2019-05-19T15:57:17.522Z,2.70
2019-05-19T15:59:50.834Z,2.30
2019-05-19T16:02:22.563Z,2.43
2019-05-19T16:04:54.374Z,2.50
2019-05-19T16:07:25.996Z,2.67
2019-05-19T16:09:58.371Z,2.50
2019-05-19T16:12:31.079Z,2.90
2019-05-19T16:15:02.950Z,2.70
2019-05-19T16:17:35.670Z,2.93
2019-05-19T16:20:07.422Z,2.30
2019-05-19T16:22:39.178Z,2.50
2019-05-19T16:25:11.776Z,2.40
2019-05-19T16:27:44.589Z,5.00
2019-05-19T16:30:15.783Z,2.60
2019-05-19T16:32:49.667Z,2.50
2019-05-19T16:35:22.068Z,3.97
2019-05-19T16:37:53.838Z,2.50
2019-05-19T16:40:25.698Z,2.30
2019-05-19T16:43:02.217Z,2.93
2019-05-19T16:45:33.745Z,2.50
2019-05-19T16:48:05.948Z,3.23
2019-05-19T16:50:38.272Z,3.10
2019-05-19T16:53:10.605Z,3.50
2019-05-19T16:55:42.338Z,2.40
2019-05-19T16:58:21.089Z,3.97
2019-05-19T17:00:47.743Z,2.93
2019-05-19T17:03:22.344Z,5.10
2019-05-19T17:05:56.825Z,5.73
2019-05-19T17:08:29.634Z,3.30
2019-05-19T17:11:02.115Z,3.00
2019-05-19T17:13:34.322Z,3.07
2019-05-19T17:16:06.210Z,3.20
2019-05-19T17:18:40.306Z,4.97
2019-05-19T17:21:13.030Z,6.63
2019-05-19T17:23:45.831Z,5.03
2019-05-19T17:26:17.702Z,8.87
2019-05-19T17:29:00.261Z,4.63
2019-05-19T17:31:24.910Z,5.73
2019-05-19T17:33:56.458Z,5.37
2019-05-19T17:36:28.658Z,4.63
2019-05-19T17:39:01.352Z,4.50
2019-05-19T17:41:33.697Z,3.47
2019-05-19T17:44:06.109Z,4.47
2019-05-19T17:46:37.771Z,3.10
2019-05-19T17:49:12.255Z,4.00
2019-05-19T17:51:43.735Z,3.00
2019-05-19T17:54:16.082Z,4.67
2019-05-19T17:56:50.971Z,4.30
2019-05-19T17:59:24.651Z,12.40
2019-05-19T18:01:58.218Z,13.83
2019-05-19T18:04:29.547Z,12.67
2019-05-19T18:07:02.046Z,5.13
2019-05-19T18:09:34.398Z,5.17
2019-05-19T18:12:08.686Z,7.67
2019-05-19T18:14:43.173Z,3.87
2019-05-19T18:17:15.679Z,6.67
2019-05-19T18:19:46.958Z,7.83
2019-05-19T18:22:21.663Z,8.40
2019-05-19T18:24:53.177Z,10.17
2019-05-19T18:27:24.823Z,9.07
2019-05-19T18:29:57.114Z,10.80
2019-05-19T18:32:32.930Z,8.40
2019-05-19T18:35:07.483Z,10.20
2019-05-19T18:37:40.607Z,15.00
2019-05-19T18:40:13.437Z,9.37
2019-05-19T18:42:45.390Z,9.50
2019-05-19T18:45:17.371Z,12.13
2019-05-19T18:47:49.982Z,9.63
2019-05-19T18:50:20.902Z,9.97
2019-05-19T18:52:52.375Z,11.20
2019-05-19T18:55:24.954Z,14.23
2019-05-19T18:57:59.236Z,12.13
2019-05-19T19:00:34.770Z,11.73
2019-05-19T19:03:07.899Z,13.10
2019-05-19T19:05:40.495Z,12.83
2019-05-19T19:08:12.347Z,13.60
2019-05-19T19:10:43.923Z,17.07
2019-05-19T19:13:15.647Z,15.37
2019-05-19T19:15:48.045Z,13.87
2019-05-19T19:18:19.815Z,15.00
2019-05-19T19:20:52.856Z,16.97
2019-05-19T19:23:24.528Z,17.00
2019-05-19T19:25:56.978Z,17.60
2019-05-19T19:28:28.398Z,15.33
2019-05-19T19:31:02.863Z,17.63
2019-05-19T19:33:36.651Z,17.03
2019-05-19T19:36:08.747Z,20.20
2019-05-19T19:38:40.296Z,14.63
2019-05-19T19:41:12.827Z,16.77
2019-05-19T19:43:45.529Z,15.70
2019-05-19T19:46:18.397Z,14.13
2019-05-19T19:48:50.250Z,16.80
2019-05-19T19:51:22.793Z,16.10
2019-05-19T19:53:55.443Z,18.83
2019-05-19T19:56:27.905Z,15.47
2019-05-19T19:59:02.357Z,17.43
2019-05-19T20:01:34.005Z,18.37
2019-05-19T20:04:05.746Z,16.80
2019-05-19T20:06:38.491Z,15.63
2019-05-19T20:09:11.710Z,16.20
2019-05-19T20:11:43.139Z,17.20
2019-05-19T20:14:17.227Z,17.47
2019-05-19T20:16:51.381Z,15.07
2019-05-19T20:19:24.376Z,12.67
2019-05-19T20:21:56.392Z,15.97
2019-05-19T20:24:28.738Z,15.20
2019-05-19T20:27:01.459Z,14.10
2019-05-19T20:29:33.934Z,16.03
2019-05-19T20:32:09.707Z,11.33
2019-05-19T20:34:42.603Z,10.77
2019-05-19T20:37:15.285Z,11.23
2019-05-19T20:39:47.054Z,9.43
2019-05-19T20:42:19.738Z,7.87
2019-05-19T20:44:52.279Z,7.93
2019-05-19T20:47:23.656Z,7.23
2019-05-19T20:49:56.195Z,10.00
2019-05-19T20:52:28.610Z,8.43
2019-05-19T20:55:00.359Z,11.43
2019-05-19T20:57:33.811Z,7.30
2019-05-19T21:00:08.610Z,10.43
2019-05-19T21:02:40.126Z,10.03
2019-05-19T21:05:11.081Z,9.40
2019-05-19T21:07:42.569Z,8.33
2019-05-19T21:10:14.402Z,7.97
2019-05-19T21:12:46.878Z,8.43
2019-05-19T21:15:19.395Z,8.63
2019-05-19T21:17:52.590Z,7.70
2019-05-19T21:20:24.181Z,7.80
2019-05-19T21:22:56.561Z,10.00
2019-05-19T21:25:28.930Z,8.67
2019-05-19T21:28:01.558Z,10.20
2019-05-19T21:30:33.090Z,10.57
2019-05-19T21:33:05.696Z,9.50
2019-05-19T21:35:37.268Z,9.73
2019-05-19T21:38:08.215Z,11.90
2019-05-19T21:40:39.827Z,8.07
2019-05-19T21:43:10.998Z,9.43
2019-05-19T21:45:41.777Z,9.83
2019-05-19T21:48:13.343Z,9.53
2019-05-19T21:50:44.324Z,9.33
2019-05-19T21:53:18.484Z,10.80
2019-05-19T21:55:50.212Z,9.10
2019-05-19T21:58:22.614Z,14.10
2019-05-19T22:00:54.973Z,8.70
2019-05-19T22:03:27.605Z,11.93
2019-05-19T22:05:59.434Z,12.93
2019-05-19T22:08:31.803Z,11.23
2019-05-19T22:11:04.773Z,9.97
2019-05-19T22:13:37.639Z,11.80
2019-05-19T22:16:13.332Z,11.97
2019-05-19T22:18:44.451Z,11.80
2019-05-19T22:21:16.795Z,13.20
2019-05-19T22:23:49.042Z,13.33
2019-05-19T22:26:20.467Z,11.67
2019-05-19T22:28:51.889Z,11.37
2019-05-19T22:31:36.229Z,13.13
2019-05-19T22:33:56.913Z,12.30
2019-05-19T22:36:28.344Z,11.20
2019-05-19T22:39:00.726Z,12.40
2019-05-19T22:41:33.147Z,12.13
2019-05-19T22:44:05.342Z,14.33
2019-05-19T22:46:37.786Z,10.80
2019-05-19T22:49:09.175Z,13.80
2019-05-19T22:51:41.730Z,16.20
2019-05-19T22:54:14.358Z,11.77
2019-05-19T22:56:46.822Z,14.43
2019-05-19T22:59:20.358Z,14.57
2019-05-19T23:01:52.319Z,14.50
2019-05-19T23:04:26.378Z,13.10
2019-05-19T23:06:57.902Z,15.10
2019-05-19T23:09:30.515Z,16.23
2019-05-19T23:12:02.941Z,14.10
2019-05-19T23:14:35.525Z,13.53
2019-05-19T23:17:07.970Z,15.00
2019-05-19T23:19:39.895Z,13.60
2019-05-19T23:22:11.491Z,16.43
2019-05-19T23:24:43.923Z,15.63
2019-05-19T23:27:18.357Z,13.83
2019-05-19T23:29:50.255Z,16.53
2019-05-19T23:32:21.854Z,13.27
2019-05-19T23:34:54.480Z,16.23
2019-05-19T23:37:26.323Z,16.43
2019-05-19T23:39:57.737Z,19.10
2019-05-19T23:42:30.595Z,15.47
2019-05-19T23:45:03.106Z,20.53
2019-05-19T23:47:37.035Z,20.77
2019-05-19T23:50:09.978Z,25.70
2019-05-19T23:52:41.368Z,27.30
2019-05-19T23:55:17.046Z,36.77
2019-05-19T23:57:51.102Z,30.97
